createdAt,value
2022-10-15T00:00:48.716Z,52.0
2022-10-15T00:01:49.400Z,51.4
2022-10-15T00:02:49.944Z,55.6
2022-10-15T00:03:50.598Z,56.2
2022-10-15T00:04:51.186Z,53.0
2022-10-15T00:05:51.782Z,56.3
2022-10-15T00:06:52.381Z,55.0
2022-10-15T00:07:52.972Z,55.6
2022-10-15T00:08:53.568Z,57.5
2022-10-15T00:09:54.165Z,55.6
2022-10-15T00:10:54.765Z,55.4
2022-10-15T00:11:55.359Z,57.5
2022-10-15T00:12:55.978Z,56.3
2022-10-15T00:13:56.553Z,56.1
2022-10-15T00:14:57.150Z,53.5
2022-10-15T00:15:57.747Z,55.3
2022-10-15T00:16:58.344Z,57.3
2022-10-15T00:17:58.962Z,59.9
2022-10-15T00:18:59.559Z,59.1
2022-10-15T00:20:00.153Z,60.4
2022-10-15T00:21:00.750Z,59.8
2022-10-15T00:23:01.946Z,60.2
2022-10-15T00:24:02.541Z,62.8
2022-10-15T00:25:03.138Z,63.2
2022-10-15T00:26:03.739Z,66.8
2022-10-15T00:27:04.330Z,65.9
2022-10-15T00:28:04.927Z,73.0
2022-10-15T00:29:05.590Z,73.8
2022-10-15T00:30:06.175Z,72.6
2022-10-15T00:31:06.773Z,73.1
2022-10-15T00:32:07.367Z,75.3
2022-10-15T00:33:07.965Z,69.6
2022-10-15T00:34:08.560Z,67.6
2022-10-15T00:35:09.162Z,76.4
2022-10-15T00:36:09.755Z,79.9
2022-10-15T00:37:10.351Z,69.4
2022-10-15T00:38:10.948Z,70.8
2022-10-15T00:39:11.543Z,66.8
2022-10-15T00:40:12.143Z,71.5
2022-10-15T00:41:12.745Z,81.6
2022-10-15T00:42:13.334Z,77.1
2022-10-15T00:43:13.933Z,73.7
2022-10-15T00:44:14.637Z,78.4
2022-10-15T00:45:15.147Z,78.3
2022-10-15T00:46:15.747Z,91.1
2022-10-15T00:47:16.353Z,82.8
2022-10-15T00:48:16.943Z,94.1
2022-10-15T00:49:17.538Z,88.7
2022-10-15T00:50:18.137Z,88.1
2022-10-15T00:51:18.733Z,95.0
2022-10-15T00:52:19.332Z,100.0
2022-10-15T00:53:19.928Z,96.7
2022-10-15T00:54:20.528Z,101.2
2022-10-15T00:55:21.124Z,94.1
2022-10-15T00:56:21.723Z,91.5
2022-10-15T00:57:22.319Z,91.4
2022-10-15T00:58:22.919Z,90.2
2022-10-15T00:59:23.514Z,94.1
2022-10-15T01:00:24.113Z,98.1
2022-10-15T01:01:24.751Z,101.5
2022-10-15T01:02:25.716Z,100.9
2022-10-15T01:03:26.432Z,100.5
2022-10-15T01:04:27.031Z,107.3
2022-10-15T01:05:27.626Z,92.0
2022-10-15T01:06:28.223Z,97.0
2022-10-15T01:07:28.843Z,97.0
2022-10-15T01:08:29.435Z,97.7
2022-10-15T01:09:30.030Z,89.4
2022-10-15T01:10:30.634Z,100.1
2022-10-15T01:11:31.224Z,94.0
2022-10-15T01:12:31.822Z,101.1
2022-10-15T01:13:32.419Z,102.8
2022-10-15T01:14:33.018Z,110.1
2022-10-15T01:15:33.617Z,102.9
2022-10-15T01:16:34.215Z,105.8
2022-10-15T01:17:34.856Z,114.3
2022-10-15T01:18:35.410Z,115.7
2022-10-15T01:19:36.008Z,108.9
2022-10-15T01:20:36.605Z,105.4
2022-10-15T01:21:37.203Z,106.9
2022-10-15T01:22:37.802Z,104.9
2022-10-15T01:23:38.400Z,110.4
2022-10-15T01:24:38.998Z,107.0
2022-10-15T01:25:39.597Z,116.3
2022-10-15T01:26:40.193Z,111.5
2022-10-15T01:27:40.789Z,111.5
2022-10-15T01:28:41.444Z,115.0
2022-10-15T01:29:42.000Z,113.5
2022-10-15T01:30:42.599Z,119.6
2022-10-15T01:31:43.195Z,114.3
2022-10-15T01:32:43.795Z,119.4
2022-10-15T01:33:44.392Z,127.5
2022-10-15T01:34:44.993Z,123.1
2022-10-15T01:35:45.589Z,119.0
2022-10-15T01:36:46.190Z,131.2
2022-10-15T01:37:46.786Z,119.3
2022-10-15T01:38:47.386Z,129.4
2022-10-15T01:39:48.004Z,117.3
2022-10-15T01:40:48.602Z,135.5
2022-10-15T01:41:49.199Z,142.2
2022-10-15T01:42:49.797Z,122.6
2022-10-15T01:43:50.396Z,131.5
2022-10-15T01:44:50.995Z,138.4
2022-10-15T01:45:51.593Z,131.9
2022-10-15T01:46:52.187Z,136.9
2022-10-15T01:47:52.789Z,136.4
2022-10-15T01:48:53.382Z,128.2
2022-10-15T01:49:53.982Z,141.0
2022-10-15T01:50:54.578Z,138.1
2022-10-15T01:51:55.182Z,140.2
2022-10-15T01:52:55.775Z,139.3
2022-10-15T01:53:56.372Z,143.8
2022-10-15T01:54:56.972Z,156.5
2022-10-15T01:55:57.576Z,133.4
2022-10-15T01:56:58.165Z,143.4
2022-10-15T01:57:58.763Z,133.4
2022-10-15T01:58:59.360Z,142.5
2022-10-15T01:59:59.960Z,137.6
2022-10-15T02:01:00.594Z,159.9
2022-10-15T02:02:01.167Z,164.3
2022-10-15T02:03:01.769Z,154.3
2022-10-15T02:04:02.368Z,163.6
2022-10-15T02:05:02.963Z,158.3
2022-10-15T02:06:03.561Z,158.6
2022-10-15T02:07:04.161Z,143.6
2022-10-15T02:08:04.757Z,154.4
2022-10-15T02:09:05.358Z,159.8
2022-10-15T02:10:05.955Z,166.9
2022-10-15T02:11:06.555Z,161.3
2022-10-15T02:12:07.154Z,176.9
2022-10-15T02:13:07.752Z,169.3
2022-10-15T02:14:08.350Z,167.5
2022-10-15T02:15:08.947Z,162.3
2022-10-15T02:16:09.545Z,164.8
2022-10-15T02:17:10.141Z,149.8
2022-10-15T02:18:10.741Z,172.9
2022-10-15T02:19:11.337Z,157.2
2022-10-15T02:20:11.935Z,151.8
2022-10-15T02:21:12.533Z,165.6
2022-10-15T02:22:13.131Z,187.6
2022-10-15T02:23:13.729Z,170.6
2022-10-15T02:24:14.327Z,180.8
2022-10-15T02:25:14.926Z,179.1
2022-10-15T02:26:15.523Z,174.1
2022-10-15T02:27:16.119Z,179.1
2022-10-15T02:28:16.750Z,168.7
2022-10-15T02:30:17.919Z,164.2
2022-10-15T02:31:18.514Z,176.0
2022-10-15T02:32:19.116Z,172.5
2022-10-15T02:33:19.731Z,173.6
2022-10-15T02:34:20.331Z,178.4
2022-10-15T02:35:20.927Z,180.7
2022-10-15T02:36:21.523Z,177.3
2022-10-15T02:37:22.120Z,177.5
2022-10-15T02:38:22.719Z,187.7
2022-10-15T02:39:23.316Z,197.2
2022-10-15T02:40:23.915Z,185.9
2022-10-15T02:41:24.510Z,173.4
2022-10-15T02:42:25.566Z,164.1
2022-10-15T02:43:26.304Z,166.1
2022-10-15T02:44:26.903Z,191.4
2022-10-15T02:45:27.499Z,168.4
2022-10-15T02:46:28.096Z,166.6
2022-10-15T02:47:28.732Z,185.4
2022-10-15T02:48:29.294Z,180.3
2022-10-15T02:49:29.887Z,176.6
2022-10-15T02:50:30.487Z,171.1
2022-10-15T02:51:31.083Z,180.8
2022-10-15T02:52:31.684Z,170.9
2022-10-15T02:53:32.278Z,183.5
2022-10-15T02:54:32.877Z,183.8
2022-10-15T02:55:33.473Z,172.6
2022-10-15T02:56:34.075Z,178.0
2022-10-15T02:57:34.670Z,172.1
2022-10-15T02:58:35.286Z,168.7
2022-10-15T02:59:35.883Z,196.0
2022-10-15T03:00:36.483Z,179.8
2022-10-15T03:01:37.080Z,185.6
2022-10-15T03:02:37.676Z,183.0
2022-10-15T03:03:38.332Z,175.4
2022-10-15T03:04:38.931Z,183.6
2022-10-15T03:05:39.585Z,216.6
2022-10-15T03:06:40.181Z,183.4
2022-10-15T03:07:40.780Z,177.5
2022-10-15T03:08:41.377Z,202.5
2022-10-15T03:09:41.974Z,193.5
2022-10-15T03:10:42.572Z,174.0
2022-10-15T03:11:43.168Z,191.2
2022-10-15T03:12:43.765Z,205.1
2022-10-15T03:13:44.381Z,192.2
2022-10-15T03:14:44.978Z,187.0
2022-10-15T03:15:45.573Z,187.6
2022-10-15T03:16:46.172Z,202.7
2022-10-15T03:17:46.794Z,201.2
2022-10-15T03:18:47.391Z,191.2
2022-10-15T03:19:47.989Z,198.3
2022-10-15T03:20:48.586Z,177.0
2022-10-15T03:21:49.182Z,180.1
2022-10-15T03:22:49.782Z,176.5
2022-10-15T03:23:50.379Z,199.3
2022-10-15T03:24:50.977Z,208.9
2022-10-15T03:25:51.574Z,196.1
2022-10-15T03:26:52.172Z,184.9
2022-10-15T03:27:52.777Z,194.6
2022-10-15T03:28:53.440Z,199.9
2022-10-15T03:29:53.996Z,204.4
2022-10-15T03:30:54.681Z,193.9
2022-10-15T03:31:55.207Z,198.6
2022-10-15T03:32:55.811Z,197.8
2022-10-15T03:33:56.402Z,212.8
2022-10-15T03:34:57.000Z,191.8
2022-10-15T03:35:57.594Z,177.8
2022-10-15T03:36:58.192Z,195.4
2022-10-15T03:37:58.790Z,192.1
2022-10-15T03:38:59.387Z,203.8
2022-10-15T03:39:59.983Z,189.4
2022-10-15T03:41:00.581Z,198.9
2022-10-15T03:42:01.178Z,187.9
2022-10-15T03:43:01.777Z,201.4
2022-10-15T03:44:02.373Z,210.0
2022-10-15T03:45:02.997Z,197.8
2022-10-15T03:46:03.601Z,205.8
2022-10-15T03:47:04.187Z,216.4
2022-10-15T03:48:04.786Z,181.8
2022-10-15T03:49:05.388Z,198.8
2022-10-15T03:50:05.985Z,195.8
2022-10-15T03:51:06.579Z,198.4
2022-10-15T03:52:07.176Z,216.8
2022-10-15T03:53:07.774Z,193.2
2022-10-15T03:54:08.372Z,202.2
2022-10-15T03:55:08.970Z,198.7
2022-10-15T03:56:09.567Z,212.8
2022-10-15T03:57:10.170Z,212.0
2022-10-15T03:58:10.762Z,222.0
2022-10-15T03:59:11.360Z,218.5
2022-10-15T04:00:11.956Z,213.8
2022-10-15T04:01:12.615Z,206.1
2022-10-15T04:02:13.255Z,196.9
2022-10-15T04:03:13.856Z,206.6
2022-10-15T04:04:14.455Z,206.1
2022-10-15T04:05:15.051Z,199.7
2022-10-15T04:06:15.648Z,220.7
2022-10-15T04:07:16.247Z,212.5
2022-10-15T04:08:16.843Z,194.9
2022-10-15T04:09:17.443Z,222.0
2022-10-15T04:10:18.041Z,190.8
2022-10-15T04:11:18.658Z,205.2
2022-10-15T04:12:19.254Z,192.5
2022-10-15T04:13:19.852Z,217.4
2022-10-15T04:14:20.450Z,211.6
2022-10-15T04:15:21.045Z,211.9
2022-10-15T04:16:21.644Z,187.6
2022-10-15T04:17:22.241Z,189.6
2022-10-15T04:18:22.859Z,186.4
2022-10-15T04:19:23.459Z,185.2
2022-10-15T04:20:24.056Z,195.5
2022-10-15T04:21:24.658Z,188.0
2022-10-15T04:22:25.444Z,196.5
2022-10-15T04:23:26.220Z,191.4
2022-10-15T04:24:26.818Z,181.0
2022-10-15T04:25:27.415Z,195.4
2022-10-15T04:26:28.014Z,189.6
2022-10-15T04:27:28.633Z,201.3
2022-10-15T04:28:29.265Z,196.2
2022-10-15T04:29:29.824Z,203.3
2022-10-15T04:30:30.422Z,201.0
2022-10-15T04:31:31.041Z,210.7
2022-10-15T04:32:31.638Z,209.2
2022-10-15T04:33:32.237Z,198.3
2022-10-15T04:34:32.833Z,193.1
2022-10-15T04:35:33.430Z,200.9
2022-10-15T04:36:34.027Z,210.6
2022-10-15T04:37:34.625Z,199.3
2022-10-15T04:38:35.222Z,205.7
2022-10-15T04:39:35.824Z,205.5
2022-10-15T04:40:36.419Z,204.7
2022-10-15T04:41:37.015Z,203.6
2022-10-15T04:42:37.614Z,200.8
2022-10-15T04:43:38.231Z,217.3
2022-10-15T04:44:38.848Z,223.2
2022-10-15T04:45:39.447Z,218.1
2022-10-15T04:46:40.088Z,215.0
2022-10-15T04:47:40.641Z,204.5
2022-10-15T04:48:43.191Z,235.2
2022-10-15T04:49:42.831Z,222.6
2022-10-15T04:50:43.429Z,219.5
2022-10-15T04:51:44.028Z,225.1
2022-10-15T04:52:44.625Z,225.0
2022-10-15T04:53:45.225Z,214.7
2022-10-15T04:54:45.823Z,205.1
2022-10-15T04:55:46.422Z,223.4
2022-10-15T04:56:47.018Z,221.4
2022-10-15T04:57:47.618Z,237.3
2022-10-15T04:58:48.218Z,222.5
2022-10-15T04:59:51.539Z,240.5
2022-10-15T05:00:50.422Z,216.6
2022-10-15T05:01:51.097Z,205.6
2022-10-15T05:02:51.633Z,211.2
2022-10-15T05:03:52.232Z,224.0
2022-10-15T05:04:52.828Z,200.3
2022-10-15T05:05:53.426Z,239.0
2022-10-15T05:06:54.023Z,212.2
2022-10-15T05:07:54.622Z,211.3
2022-10-15T05:08:55.217Z,209.2
2022-10-15T05:09:55.827Z,204.8
2022-10-15T05:10:56.414Z,204.4
2022-10-15T05:11:57.014Z,199.3
2022-10-15T05:12:57.611Z,225.6
2022-10-15T05:13:58.208Z,217.1
2022-10-15T05:14:58.805Z,208.3
2022-10-15T05:15:59.404Z,206.6
2022-10-15T05:16:59.999Z,204.8
2022-10-15T05:18:00.598Z,207.9
2022-10-15T05:19:01.194Z,210.0
2022-10-15T05:20:01.794Z,190.8
2022-10-15T05:21:02.390Z,196.7
2022-10-15T05:22:02.992Z,196.7
2022-10-15T05:23:03.585Z,211.2
2022-10-15T05:24:04.186Z,199.3
2022-10-15T05:25:04.783Z,221.9
2022-10-15T05:26:05.385Z,204.2
2022-10-15T05:27:05.979Z,197.8
2022-10-15T05:28:06.577Z,203.1
2022-10-15T05:29:07.175Z,211.4
2022-10-15T05:30:07.774Z,197.2
2022-10-15T05:31:08.372Z,203.4
2022-10-15T05:32:09.055Z,202.3
2022-10-15T05:33:09.637Z,201.9
2022-10-15T05:34:10.240Z,202.5
2022-10-15T05:35:10.834Z,199.9
2022-10-15T05:36:11.437Z,183.5
2022-10-15T05:37:12.034Z,210.0
2022-10-15T05:38:12.636Z,181.1
2022-10-15T05:39:13.234Z,180.5
2022-10-15T05:40:15.889Z,196.0
2022-10-15T05:41:14.449Z,194.0
2022-10-15T05:42:15.055Z,185.8
2022-10-15T05:43:15.650Z,189.9
2022-10-15T05:44:16.253Z,208.3
2022-10-15T05:45:16.847Z,190.2
2022-10-15T05:46:17.449Z,195.5
2022-10-15T05:47:18.063Z,189.1
2022-10-15T05:48:18.651Z,184.7
2022-10-15T05:49:19.260Z,200.2
2022-10-15T05:50:19.852Z,180.7
2022-10-15T05:51:20.472Z,184.5
2022-10-15T05:52:21.532Z,182.3
2022-10-15T05:53:22.420Z,198.5
2022-10-15T05:54:23.041Z,178.4
2022-10-15T05:55:23.662Z,184.3
2022-10-15T05:56:24.263Z,175.1
2022-10-15T05:57:24.869Z,183.4
2022-10-15T05:58:25.467Z,186.8
2022-10-15T05:59:26.066Z,169.9
2022-10-15T06:00:26.668Z,184.4
2022-10-15T06:01:27.269Z,187.5
2022-10-15T06:02:28.564Z,195.4
2022-10-15T06:03:29.486Z,185.7
2022-10-15T06:04:33.217Z,174.9
2022-10-15T06:05:31.684Z,167.6
2022-10-15T06:06:32.288Z,175.2
2022-10-15T06:07:32.890Z,170.3
2022-10-15T06:08:33.493Z,184.2
2022-10-15T06:09:34.092Z,176.8
2022-10-15T06:10:34.693Z,186.6
2022-10-15T06:11:35.318Z,164.0
2022-10-15T06:12:35.922Z,179.7
2022-10-15T06:13:36.525Z,181.4
2022-10-15T06:14:37.125Z,176.8
2022-10-15T06:15:37.727Z,180.6
2022-10-15T06:16:38.332Z,180.4
2022-10-15T06:17:38.935Z,167.0
2022-10-15T06:18:39.540Z,177.0
2022-10-15T06:19:40.147Z,185.8
2022-10-15T06:20:40.748Z,188.4
2022-10-15T06:21:41.368Z,199.2
2022-10-15T06:22:41.974Z,191.4
2022-10-15T06:23:42.575Z,187.9
2022-10-15T06:24:43.181Z,179.0
2022-10-15T06:25:43.781Z,191.8
2022-10-15T06:26:44.384Z,210.2
2022-10-15T06:27:45.016Z,186.8
2022-10-15T06:28:45.656Z,210.6
2022-10-15T06:29:46.229Z,204.8
2022-10-15T06:30:46.832Z,185.7
2022-10-15T06:31:47.435Z,177.6
2022-10-15T06:32:48.039Z,184.7
2022-10-15T06:33:48.643Z,194.4
2022-10-15T06:34:49.246Z,208.3
2022-10-15T06:35:49.849Z,190.7
2022-10-15T06:36:50.453Z,168.4
2022-10-15T06:37:51.056Z,179.9
2022-10-15T06:38:51.659Z,179.5
2022-10-15T06:39:52.266Z,200.8
2022-10-15T06:40:52.865Z,184.5
2022-10-15T06:41:53.469Z,190.1
2022-10-15T06:42:54.074Z,177.4
2022-10-15T06:43:54.801Z,190.5
2022-10-15T06:44:55.394Z,179.5
2022-10-15T06:45:55.998Z,178.2
2022-10-15T06:46:56.601Z,188.5
2022-10-15T06:47:57.204Z,180.0
2022-10-15T06:48:57.804Z,177.7
2022-10-15T06:49:58.407Z,174.6
2022-10-15T06:50:59.009Z,188.6
2022-10-15T06:52:02.673Z,197.1
2022-10-15T06:53:00.387Z,184.9
2022-10-15T06:54:01.021Z,171.5
2022-10-15T06:55:01.623Z,169.6
2022-10-15T06:56:02.225Z,177.1
2022-10-15T06:57:02.829Z,175.0
2022-10-15T06:58:03.433Z,194.6
2022-10-15T06:59:04.036Z,175.7
2022-10-15T07:00:04.639Z,172.5
2022-10-15T07:01:05.242Z,165.9
2022-10-15T07:02:05.848Z,170.1
2022-10-15T07:03:06.452Z,166.2
2022-10-15T07:04:07.055Z,184.8
2022-10-15T07:05:07.658Z,161.7
2022-10-15T07:06:08.262Z,176.7
2022-10-15T07:07:08.865Z,180.5
2022-10-15T07:08:09.463Z,185.1
2022-10-15T07:09:10.067Z,165.3
2022-10-15T07:10:10.705Z,149.7
2022-10-15T07:11:11.274Z,178.2
2022-10-15T07:12:11.877Z,166.6
2022-10-15T07:13:12.479Z,146.8
2022-10-15T07:14:13.083Z,143.1
2022-10-15T07:15:13.687Z,153.9
2022-10-15T07:16:14.289Z,152.2
2022-10-15T07:17:14.895Z,147.5
2022-10-15T07:18:15.498Z,148.8
2022-10-15T07:19:16.119Z,166.6
2022-10-15T07:20:20.145Z,154.7
2022-10-15T07:21:18.319Z,152.6
2022-10-15T07:22:18.923Z,145.7
2022-10-15T07:23:22.836Z,142.0
2022-10-15T07:24:21.127Z,140.8
2022-10-15T07:25:21.729Z,141.7
2022-10-15T07:26:22.337Z,154.5
2022-10-15T07:27:22.941Z,149.6
2022-10-15T07:28:23.599Z,139.0
2022-10-15T07:29:24.191Z,131.3
2022-10-15T07:30:24.844Z,140.2
2022-10-15T07:31:25.398Z,127.7
2022-10-15T07:32:26.290Z,139.9
2022-10-15T07:33:27.029Z,126.8
2022-10-15T07:34:27.633Z,122.9
2022-10-15T07:35:28.236Z,121.9
2022-10-15T07:36:28.841Z,118.8
2022-10-15T07:37:29.442Z,119.0
2022-10-15T07:38:30.047Z,114.6
2022-10-15T07:39:30.648Z,107.0
2022-10-15T07:40:31.253Z,113.8
2022-10-15T07:41:31.857Z,105.1
2022-10-15T07:42:32.462Z,110.0
2022-10-15T07:43:33.071Z,108.9
2022-10-15T07:44:33.685Z,99.4
2022-10-15T07:45:34.289Z,109.9
2022-10-15T07:46:34.911Z,118.1
2022-10-15T07:47:35.512Z,113.6
2022-10-15T07:48:36.119Z,103.7
2022-10-15T07:49:36.739Z,110.0
2022-10-15T07:50:40.337Z,110.2
2022-10-15T07:51:38.940Z,107.3
2022-10-15T07:52:39.544Z,109.0
2022-10-15T07:53:40.148Z,119.2
2022-10-15T07:54:40.756Z,117.0
2022-10-15T07:55:41.363Z,110.0
2022-10-15T07:56:41.959Z,105.4
2022-10-15T07:57:42.560Z,99.3
2022-10-15T07:58:43.166Z,97.8
2022-10-15T07:59:43.766Z,107.1
2022-10-15T08:00:44.371Z,102.7
2022-10-15T08:01:47.129Z,99.4
2022-10-15T08:02:46.570Z,93.5
2022-10-15T08:03:47.178Z,92.1
2022-10-15T08:04:47.774Z,100.4
2022-10-15T08:05:48.377Z,101.4
2022-10-15T08:06:48.981Z,92.3
2022-10-15T08:07:49.583Z,86.8
2022-10-15T08:08:50.186Z,88.4
2022-10-15T08:09:50.794Z,94.2
2022-10-15T08:10:51.392Z,96.4
2022-10-15T08:11:51.992Z,85.3
2022-10-15T08:12:52.596Z,80.2
2022-10-15T08:13:53.195Z,86.1
2022-10-15T08:14:53.800Z,93.0
2022-10-15T08:15:57.629Z,87.8
2022-10-15T08:16:56.000Z,87.0
2022-10-15T08:17:56.603Z,90.6
2022-10-15T08:18:57.207Z,89.0
2022-10-15T08:19:57.808Z,91.6
2022-10-15T08:20:58.412Z,91.2
2022-10-15T08:21:59.015Z,94.6
2022-10-15T08:22:59.618Z,87.8
2022-10-15T08:24:00.230Z,88.7
2022-10-15T08:25:00.826Z,94.5
2022-10-15T08:26:01.449Z,88.9
2022-10-15T08:27:02.051Z,94.7
2022-10-15T08:28:02.691Z,91.7
2022-10-15T08:29:03.332Z,90.9
2022-10-15T08:30:03.910Z,91.6
2022-10-15T08:31:05.861Z,86.5
2022-10-15T08:32:06.108Z,90.3
2022-10-15T08:33:06.718Z,82.7
2022-10-15T08:34:07.316Z,86.6
2022-10-15T08:35:07.919Z,91.0
2022-10-15T08:36:08.525Z,81.5
2022-10-15T08:37:09.187Z,81.8
2022-10-15T08:38:09.755Z,75.6
2022-10-15T08:39:10.360Z,72.1
2022-10-15T08:40:10.962Z,70.8
2022-10-15T08:41:11.564Z,72.8
2022-10-15T08:42:12.172Z,73.7
2022-10-15T08:43:12.764Z,70.4
2022-10-15T08:44:13.366Z,73.2
2022-10-15T08:45:13.968Z,73.4
2022-10-15T08:46:14.570Z,65.3
2022-10-15T08:47:15.175Z,60.3
2022-10-15T08:48:15.779Z,59.7
2022-10-15T08:49:16.379Z,57.1
2022-10-15T08:50:16.983Z,59.6
2022-10-15T08:51:17.585Z,52.8
2022-10-15T08:52:18.185Z,52.8
2022-10-15T08:53:18.788Z,51.5
2022-10-15T08:54:19.399Z,52.6
2022-10-15T08:55:20.098Z,51.3
2022-10-15T08:56:20.703Z,47.0
2022-10-15T08:57:21.385Z,48.6
2022-10-15T08:58:22.106Z,46.6
2022-10-15T08:59:22.709Z,50.0
2022-10-15T09:00:23.311Z,44.6
2022-10-15T09:01:23.915Z,40.2
2022-10-15T09:02:24.516Z,41.8
2022-10-15T09:03:25.254Z,39.9
2022-10-15T09:05:26.434Z,38.4
2022-10-15T09:06:27.034Z,42.8
2022-10-15T09:07:27.658Z,41.6
2022-10-15T09:08:28.262Z,40.8
2022-10-15T09:09:28.869Z,39.1
2022-10-15T09:10:29.469Z,39.2
2022-10-15T09:11:30.073Z,38.3
2022-10-15T09:12:30.675Z,36.9
2022-10-15T09:13:31.311Z,32.9
2022-10-15T09:14:31.891Z,35.9
2022-10-15T09:15:32.494Z,29.7
2022-10-15T09:16:33.095Z,36.9
2022-10-15T09:17:33.700Z,38.6
2022-10-15T09:18:34.326Z,35.4
2022-10-15T09:19:34.949Z,33.2
2022-10-15T09:20:35.568Z,36.0
2022-10-15T09:21:36.172Z,32.4
2022-10-15T09:22:36.812Z,30.2
2022-10-15T09:23:37.385Z,29.8
2022-10-15T09:24:38.005Z,30.4
2022-10-15T09:25:38.611Z,32.2
2022-10-15T09:26:39.212Z,31.2
2022-10-15T09:27:39.816Z,27.1
2022-10-15T09:28:40.451Z,25.0
2022-10-15T09:29:41.034Z,23.8
2022-10-15T09:30:41.637Z,28.7
2022-10-15T09:31:42.241Z,27.7
2022-10-15T09:32:42.843Z,24.2
2022-10-15T09:33:43.446Z,25.3
2022-10-15T09:34:44.051Z,23.9
2022-10-15T09:35:44.654Z,23.6
2022-10-15T09:36:45.256Z,25.1
2022-10-15T09:37:45.859Z,22.7
2022-10-15T09:38:46.461Z,22.3
2022-10-15T09:39:47.067Z,22.6
2022-10-15T09:40:47.666Z,20.5
2022-10-15T09:41:48.268Z,22.1
2022-10-15T09:42:48.871Z,20.5
2022-10-15T09:43:49.496Z,19.5
2022-10-15T09:44:50.099Z,20.2
2022-10-15T09:45:50.702Z,19.5
2022-10-15T09:46:51.325Z,19.8
2022-10-15T09:47:51.906Z,19.4
2022-10-15T09:48:52.508Z,18.8
2022-10-15T09:49:53.111Z,18.5
2022-10-15T09:50:53.735Z,16.6
2022-10-15T09:51:54.315Z,17.4
2022-10-15T09:52:54.919Z,17.5
2022-10-15T09:53:55.522Z,17.9
2022-10-15T09:54:56.128Z,17.5
2022-10-15T09:55:56.729Z,17.3
2022-10-15T09:56:57.332Z,21.6
2022-10-15T09:57:57.957Z,18.2
2022-10-15T09:58:58.559Z,16.8
2022-10-15T09:59:59.186Z,17.1
2022-10-15T10:00:59.786Z,17.0
2022-10-15T10:02:00.434Z,16.9
2022-10-15T10:03:01.007Z,17.6
2022-10-15T10:04:01.611Z,18.4
2022-10-15T10:05:03.291Z,17.1
2022-10-15T10:06:03.810Z,17.1
2022-10-15T10:07:04.415Z,18.9
2022-10-15T10:08:05.019Z,22.4
2022-10-15T10:09:05.622Z,19.5
2022-10-15T10:10:06.225Z,18.1
2022-10-15T10:11:06.828Z,18.8
2022-10-15T10:12:07.434Z,18.4
2022-10-15T10:13:08.038Z,17.4
2022-10-15T10:14:08.638Z,15.8
2022-10-15T10:15:09.244Z,15.3
2022-10-15T10:16:09.858Z,16.3
2022-10-15T10:17:10.450Z,15.2
2022-10-15T10:18:11.051Z,15.9
2022-10-15T10:19:11.654Z,15.3
2022-10-15T10:20:12.258Z,16.0
2022-10-15T10:21:12.859Z,23.0
2022-10-15T10:22:13.461Z,16.2
2022-10-15T10:23:14.063Z,15.6
2022-10-15T10:24:14.668Z,15.1
2022-10-15T10:25:15.270Z,16.4
2022-10-15T10:26:15.873Z,20.2
2022-10-15T10:27:16.475Z,16.5
2022-10-15T10:28:17.145Z,15.4
2022-10-15T10:29:32.849Z,14.8
2022-10-15T10:30:19.319Z,16.6
2022-10-15T10:31:19.924Z,13.6
2022-10-15T10:32:20.525Z,13.0
2022-10-15T10:33:21.128Z,12.5
2022-10-15T10:34:21.732Z,13.8
2022-10-15T10:35:22.334Z,13.8
2022-10-15T10:36:22.939Z,12.5
2022-10-15T10:37:23.805Z,13.0
2022-10-15T10:38:24.561Z,12.0
2022-10-15T10:39:25.178Z,12.3
2022-10-15T10:40:25.780Z,12.0
2022-10-15T10:41:26.382Z,13.3
2022-10-15T10:42:26.988Z,12.1
2022-10-15T10:43:27.586Z,11.9
2022-10-15T10:44:28.190Z,10.6
2022-10-15T10:45:28.804Z,11.7
2022-10-15T10:46:29.394Z,12.2
2022-10-15T10:47:29.997Z,12.4
2022-10-15T10:48:30.599Z,11.1
2022-10-15T10:49:31.203Z,10.9
2022-10-15T10:50:31.804Z,9.3
2022-10-15T10:51:32.406Z,26.8
2022-10-15T10:52:33.007Z,12.1
2022-10-15T10:53:33.612Z,11.9
2022-10-15T10:54:34.255Z,11.4
2022-10-15T10:55:34.814Z,11.2
2022-10-15T10:56:35.419Z,11.2
2022-10-15T10:57:36.020Z,10.9
2022-10-15T10:58:36.621Z,10.2
2022-10-15T10:59:37.230Z,10.8
2022-10-15T11:00:37.868Z,10.3
2022-10-15T11:01:38.450Z,11.2
2022-10-15T11:02:39.067Z,11.4
2022-10-15T11:03:39.674Z,10.9
2022-10-15T11:04:40.291Z,9.9
2022-10-15T11:05:40.913Z,11.8
2022-10-15T11:06:41.518Z,11.3
2022-10-15T11:07:42.122Z,12.0
2022-10-15T11:08:42.725Z,11.3
2022-10-15T11:09:43.328Z,12.2
2022-10-15T11:10:43.937Z,11.2
2022-10-15T11:11:44.553Z,11.1
2022-10-15T11:12:45.160Z,11.8
2022-10-15T11:13:45.762Z,11.2
2022-10-15T11:14:46.363Z,11.7
2022-10-15T11:15:46.971Z,11.1
2022-10-15T11:16:47.588Z,11.2
2022-10-15T11:17:48.193Z,12.8
2022-10-15T11:18:48.794Z,11.4
2022-10-15T11:20:58.838Z,11.5
2022-10-15T11:21:52.499Z,11.2
2022-10-15T11:22:53.106Z,11.6
2022-10-15T11:23:53.706Z,11.9
2022-10-15T11:25:05.906Z,11.5
2022-10-15T11:25:55.903Z,11.0
2022-10-15T11:27:10.051Z,11.5
2022-10-15T11:27:58.101Z,10.8
2022-10-15T11:28:58.781Z,10.8
2022-10-15T11:29:59.362Z,10.7
2022-10-15T11:30:59.964Z,10.9
2022-10-15T11:32:10.272Z,10.7
2022-10-15T11:33:07.599Z,9.7
2022-10-15T11:34:03.625Z,9.7
2022-10-15T11:35:04.244Z,9.9
2022-10-15T11:36:04.846Z,8.8
2022-10-15T11:37:05.450Z,8.9
2022-10-15T11:38:06.047Z,8.2
2022-10-15T11:39:06.649Z,8.8
2022-10-15T11:40:07.257Z,7.5
2022-10-15T11:41:07.849Z,8.1
2022-10-15T11:42:08.454Z,7.2
2022-10-15T11:43:09.081Z,8.5
2022-10-15T11:44:09.703Z,8.3
2022-10-15T11:45:10.302Z,9.7
2022-10-15T11:46:10.905Z,8.5
2022-10-15T11:47:11.503Z,8.8
2022-10-15T11:48:12.107Z,7.7
2022-10-15T11:49:12.707Z,7.5
2022-10-15T11:50:13.316Z,7.8
2022-10-15T11:51:13.907Z,7.7
2022-10-15T11:52:14.509Z,7.8
2022-10-15T11:53:15.112Z,7.8
2022-10-15T11:54:15.716Z,6.9
2022-10-15T11:55:16.313Z,7.6
2022-10-15T11:56:16.920Z,6.3
2022-10-15T11:57:17.515Z,6.1
2022-10-15T11:58:18.116Z,6.4
2022-10-15T11:59:18.718Z,6.0
2022-10-15T12:00:19.349Z,5.7
2022-10-15T12:01:19.962Z,5.4
2022-10-15T12:02:20.674Z,5.9
2022-10-15T12:03:21.329Z,5.8
2022-10-15T12:04:21.935Z,5.7
2022-10-15T12:05:22.503Z,5.9
2022-10-15T12:06:23.105Z,5.6
2022-10-15T12:07:23.706Z,6.0
2022-10-15T12:08:24.344Z,6.2
2022-10-15T12:09:24.907Z,5.5
2022-10-15T12:10:25.512Z,10.0
2022-10-15T12:11:26.113Z,5.5
2022-10-15T12:12:26.879Z,5.9
2022-10-15T12:13:27.507Z,6.0
2022-10-15T12:14:28.117Z,5.8
2022-10-15T12:15:28.716Z,5.3
2022-10-15T12:16:29.323Z,5.9
2022-10-15T12:17:29.942Z,7.8
2022-10-15T12:18:30.564Z,5.8
2022-10-15T12:19:31.165Z,6.0
2022-10-15T12:20:31.768Z,5.4
2022-10-15T12:21:32.370Z,5.8
2022-10-15T12:22:34.129Z,5.0
2022-10-15T12:23:34.566Z,5.0
2022-10-15T12:24:35.167Z,4.8
2022-10-15T12:25:35.774Z,5.1
2022-10-15T12:26:36.369Z,4.8
2022-10-15T12:27:36.969Z,5.3
2022-10-15T12:28:37.588Z,4.9
2022-10-15T12:29:38.167Z,4.7
2022-10-15T12:30:38.767Z,4.3
2022-10-15T12:31:39.367Z,4.4
2022-10-15T12:32:39.970Z,4.4
2022-10-15T12:33:40.571Z,4.4
2022-10-15T12:34:41.175Z,4.6
2022-10-15T12:35:41.776Z,4.5
2022-10-15T12:36:42.377Z,4.4
2022-10-15T12:37:42.975Z,4.4
2022-10-15T12:38:43.582Z,4.3
2022-10-15T12:39:59.510Z,3.6
2022-10-15T12:40:45.773Z,3.1
2022-10-15T12:41:46.387Z,3.4
2022-10-15T12:42:47.006Z,3.3
2022-10-15T12:43:47.603Z,3.2
2022-10-15T12:44:48.204Z,3.1
2022-10-15T12:45:48.802Z,2.5
2022-10-15T12:46:49.402Z,2.4
2022-10-15T12:47:50.004Z,4.9
2022-10-15T12:48:50.624Z,3.5
2022-10-15T12:49:51.228Z,2.7
2022-10-15T12:50:51.827Z,2.7
2022-10-15T12:51:56.010Z,2.0
2022-10-15T12:52:54.021Z,2.1
2022-10-15T12:53:54.623Z,2.7
2022-10-15T12:54:58.947Z,2.5
2022-10-15T12:55:56.814Z,3.0
2022-10-15T12:56:57.419Z,2.2
2022-10-15T12:57:58.041Z,2.5
2022-10-15T12:58:58.640Z,2.2
2022-10-15T12:59:59.239Z,2.1
2022-10-15T13:00:59.905Z,2.3
2022-10-15T13:02:00.452Z,2.6
2022-10-15T13:03:01.064Z,4.7
2022-10-15T13:04:01.674Z,2.5
2022-10-15T13:05:02.297Z,2.5
2022-10-15T13:06:02.893Z,2.4
2022-10-15T13:07:03.493Z,2.5
2022-10-15T13:08:04.094Z,2.7
2022-10-15T13:09:04.696Z,3.3
2022-10-15T13:10:05.313Z,1.6
2022-10-15T13:11:05.918Z,1.8
2022-10-15T13:12:06.543Z,1.7
2022-10-15T13:13:07.141Z,3.7
2022-10-15T13:14:07.740Z,1.5
2022-10-15T13:15:08.338Z,4.2
2022-10-15T13:16:08.936Z,1.6
2022-10-15T13:17:09.537Z,3.5
2022-10-15T13:18:10.138Z,1.8
2022-10-15T13:19:10.737Z,1.6
2022-10-15T13:20:11.397Z,1.4
2022-10-15T13:21:13.783Z,1.3